sensor_id;sensor_type;location;lat;lon;timestamp;pressure;altitude;pressure_sealevel;temperature;humidity
33189;BME280;52601;53.070;10.600;2023-04-25T00:00:10;100185.75;;;9.07;100.00
33189;BME280;52601;53.070;10.600;2023-04-25T00:02:56;100178.53;;;8.95;100.00
33189;BME280;52601;53.070;10.600;2023-04-25T00:05:45;100174.31;;;8.93;100.00
33189;BME280;52601;53.070;10.600;2023-04-25T00:08:30;100168.31;;;8.91;100.00
33189;BME280;52601;53.070;10.600;2023-04-25T00:11:16;100177.75;;;8.76;100.00
33189;BME280;52601;53.070;10.600;2023-04-25T00:14:01;100181.06;;;8.62;100.00
33189;BME280;52601;53.070;10.600;2023-04-25T00:16:47;100180.66;;;8.53;100.00
33189;BME280;52601;53.070;10.600;2023-04-25T00:19:33;100179.81;;;8.52;100.00
33189;BME280;52601;53.070;10.600;2023-04-25T00:22:20;100185.88;;;8.53;100.00
33189;BME280;52601;53.070;10.600;2023-04-25T00:25:06;100186.28;;;8.62;100.00
33189;BME280;52601;53.070;10.600;2023-04-25T00:27:52;100190.91;;;8.75;100.00
33189;BME280;52601;53.070;10.600;2023-04-25T00:30:38;100178.91;;;8.71;100.00
33189;BME280;52601;53.070;10.600;2023-04-25T00:33:23;100186.97;;;8.83;100.00
33189;BME280;52601;53.070;10.600;2023-04-25T00:36:09;100176.38;;;8.86;100.00
33189;BME280;52601;53.070;10.600;2023-04-25T00:38:55;100185.09;;;8.87;100.00
33189;BME280;52601;53.070;10.600;2023-04-25T00:41:41;100182.31;;;8.90;100.00
33189;BME280;52601;53.070;10.600;2023-04-25T00:44:27;100188.22;;;8.93;100.00
33189;BME280;52601;53.070;10.600;2023-04-25T00:47:12;100182.78;;;8.98;100.00
33189;BME280;52601;53.070;10.600;2023-04-25T00:49:58;100180.16;;;8.98;100.00
33189;BME280;52601;53.070;10.600;2023-04-25T00:52:44;100181.69;;;9.02;100.00
33189;BME280;52601;53.070;10.600;2023-04-25T00:55:30;100180.06;;;8.99;100.00
33189;BME280;52601;53.070;10.600;2023-04-25T00:58:20;100184.09;;;9.06;100.00
33189;BME280;52601;53.070;10.600;2023-04-25T01:01:06;100184.91;;;9.07;100.00
33189;BME280;52601;53.070;10.600;2023-04-25T01:03:53;100182.53;;;9.02;100.00
33189;BME280;52601;53.070;10.600;2023-04-25T01:06:40;100174.69;;;9.02;100.00
33189;BME280;52601;53.070;10.600;2023-04-25T01:09:25;100185.25;;;9.01;100.00
33189;BME280;52601;53.070;10.600;2023-04-25T01:12:11;100179.25;;;8.99;100.00
33189;BME280;52601;53.070;10.600;2023-04-25T01:14:56;100179.06;;;9.02;100.00
33189;BME280;52601;53.070;10.600;2023-04-25T01:17:42;100177.44;;;8.99;100.00
33189;BME280;52601;53.070;10.600;2023-04-25T01:20:31;100174.25;;;8.94;100.00
33189;BME280;52601;53.070;10.600;2023-04-25T01:23:18;100176.38;;;9.03;100.00
33189;BME280;52601;53.070;10.600;2023-04-25T01:26:05;100173.84;;;9.02;100.00
33189;BME280;52601;53.070;10.600;2023-04-25T01:28:51;100177.22;;;9.04;100.00
33189;BME280;52601;53.070;10.600;2023-04-25T01:31:37;100182.94;;;8.95;100.00
33189;BME280;52601;53.070;10.600;2023-04-25T01:34:24;100178.22;;;9.01;100.00
33189;BME280;52601;53.070;10.600;2023-04-25T01:37:09;100178.09;;;9.04;100.00
33189;BME280;52601;53.070;10.600;2023-04-25T01:39:54;100188.28;;;9.09;100.00
33189;BME280;52601;53.070;10.600;2023-04-25T01:42:43;100186.44;;;9.11;100.00
33189;BME280;52601;53.070;10.600;2023-04-25T01:45:28;100193.22;;;9.15;100.00
33189;BME280;52601;53.070;10.600;2023-04-25T01:48:13;100196.69;;;9.15;100.00
33189;BME280;52601;53.070;10.600;2023-04-25T01:51:00;100194.84;;;9.17;100.00
33189;BME280;52601;53.070;10.600;2023-04-25T01:53:45;100189.00;;;9.12;100.00
33189;BME280;52601;53.070;10.600;2023-04-25T01:56:32;100202.38;;;9.23;100.00
33189;BME280;52601;53.070;10.600;2023-04-25T01:59:18;100194.59;;;9.22;100.00
33189;BME280;52601;53.070;10.600;2023-04-25T02:02:05;100210.00;;;9.28;100.00
33189;BME280;52601;53.070;10.600;2023-04-25T02:04:51;100209.63;;;9.18;100.00
33189;BME280;52601;53.070;10.600;2023-04-25T02:07:36;100215.00;;;9.15;100.00
33189;BME280;52601;53.070;10.600;2023-04-25T02:10:21;100220.44;;;9.11;100.00
33189;BME280;52601;53.070;10.600;2023-04-25T02:13:07;100225.28;;;9.01;100.00
33189;BME280;52601;53.070;10.600;2023-04-25T02:15:52;100227.22;;;8.98;100.00
33189;BME280;52601;53.070;10.600;2023-04-25T02:18:38;100222.75;;;8.83;100.00
33189;BME280;52601;53.070;10.600;2023-04-25T02:21:24;100222.50;;;8.70;100.00
33189;BME280;52601;53.070;10.600;2023-04-25T02:24:09;100241.47;;;8.74;100.00
33189;BME280;52601;53.070;10.600;2023-04-25T02:26:55;100237.03;;;8.76;100.00
33189;BME280;52601;53.070;10.600;2023-04-25T02:29:41;100238.25;;;8.68;100.00
33189;BME280;52601;53.070;10.600;2023-04-25T02:32:26;100231.91;;;8.55;100.00
33189;BME280;52601;53.070;10.600;2023-04-25T02:35:12;100231.09;;;8.55;100.00
33189;BME280;52601;53.070;10.600;2023-04-25T02:37:57;100238.84;;;8.56;100.00
33189;BME280;52601;53.070;10.600;2023-04-25T02:40:43;100225.84;;;8.55;100.00
33189;BME280;52601;53.070;10.600;2023-04-25T02:43:28;100242.50;;;8.52;100.00
33189;BME280;52601;53.070;10.600;2023-04-25T02:46:14;100241.59;;;8.53;100.00
33189;BME280;52601;53.070;10.600;2023-04-25T02:49:10;100240.69;;;8.54;100.00
33189;BME280;52601;53.070;10.600;2023-04-25T02:51:55;100228.75;;;8.49;100.00
33189;BME280;52601;53.070;10.600;2023-04-25T02:54:40;100241.25;;;8.42;100.00
33189;BME280;52601;53.070;10.600;2023-04-25T02:57:26;100251.53;;;8.45;100.00
33189;BME280;52601;53.070;10.600;2023-04-25T03:00:12;100256.78;;;8.45;100.00
33189;BME280;52601;53.070;10.600;2023-04-25T03:02:59;100252.75;;;8.38;100.00
33189;BME280;52601;53.070;10.600;2023-04-25T03:05:45;100252.47;;;8.44;100.00
33189;BME280;52601;53.070;10.600;2023-04-25T03:08:32;100256.16;;;8.40;99.36
33189;BME280;52601;53.070;10.600;2023-04-25T03:11:19;100254.31;;;8.42;99.04
33189;BME280;52601;53.070;10.600;2023-04-25T03:14:05;100258.69;;;8.42;98.00
33189;BME280;52601;53.070;10.600;2023-04-25T03:16:51;100265.66;;;8.41;96.25
33189;BME280;52601;53.070;10.600;2023-04-25T03:19:37;100264.28;;;8.34;95.38
33189;BME280;52601;53.070;10.600;2023-04-25T03:22:23;100269.50;;;8.34;95.74
33189;BME280;52601;53.070;10.600;2023-04-25T03:25:09;100267.28;;;8.25;94.81
33189;BME280;52601;53.070;10.600;2023-04-25T03:27:54;100262.28;;;8.21;95.33
33189;BME280;52601;53.070;10.600;2023-04-25T03:30:40;100279.00;;;8.17;95.12
33189;BME280;52601;53.070;10.600;2023-04-25T03:33:26;100272.41;;;8.08;95.61
33189;BME280;52601;53.070;10.600;2023-04-25T03:36:12;100272.25;;;7.93;96.56
33189;BME280;52601;53.070;10.600;2023-04-25T03:38:57;100287.47;;;7.83;97.17
33189;BME280;52601;53.070;10.600;2023-04-25T03:41:42;100288.00;;;7.71;97.56
33189;BME280;52601;53.070;10.600;2023-04-25T03:44:28;100286.97;;;7.55;97.88
33189;BME280;52601;53.070;10.600;2023-04-25T03:47:14;100301.13;;;7.49;97.31
33189;BME280;52601;53.070;10.600;2023-04-25T03:49:59;100306.34;;;7.49;97.37
33189;BME280;52601;53.070;10.600;2023-04-25T03:52:46;100302.44;;;7.59;97.17
33189;BME280;52601;53.070;10.600;2023-04-25T03:55:32;100299.56;;;7.65;96.63
33189;BME280;52601;53.070;10.600;2023-04-25T03:58:17;100305.34;;;7.72;96.27
33189;BME280;52601;53.070;10.600;2023-04-25T04:01:03;100310.03;;;7.84;96.49
33189;BME280;52601;53.070;10.600;2023-04-25T04:03:52;100307.78;;;7.76;95.05
33189;BME280;52601;53.070;10.600;2023-04-25T04:06:39;100317.00;;;7.83;94.54
33189;BME280;52601;53.070;10.600;2023-04-25T04:09:24;100322.97;;;7.87;94.38
33189;BME280;52601;53.070;10.600;2023-04-25T04:12:10;100328.22;;;7.85;92.78
33189;BME280;52601;53.070;10.600;2023-04-25T04:14:55;100316.97;;;7.85;94.05
33189;BME280;52601;53.070;10.600;2023-04-25T04:17:41;100330.84;;;7.85;92.10
33189;BME280;52601;53.070;10.600;2023-04-25T04:20:26;100331.09;;;7.79;91.13
33189;BME280;52601;53.070;10.600;2023-04-25T04:23:12;100326.22;;;7.72;92.20
33189;BME280;52601;53.070;10.600;2023-04-25T04:25:58;100337.84;;;7.65;89.36
33189;BME280;52601;53.070;10.600;2023-04-25T04:28:43;100332.81;;;7.60;90.23
33189;BME280;52601;53.070;10.600;2023-04-25T04:31:32;100339.41;;;7.49;91.02
33189;BME280;52601;53.070;10.600;2023-04-25T04:34:18;100340.53;;;7.42;91.67
33189;BME280;52601;53.070;10.600;2023-04-25T04:37:03;100357.22;;;7.38;92.21
33189;BME280;52601;53.070;10.600;2023-04-25T04:39:49;100354.16;;;7.28;90.58
33189;BME280;52601;53.070;10.600;2023-04-25T04:42:35;100357.75;;;7.26;91.86
33189;BME280;52601;53.070;10.600;2023-04-25T04:45:21;100361.50;;;7.19;91.08
33189;BME280;52601;53.070;10.600;2023-04-25T04:48:07;100374.31;;;7.25;91.34
33189;BME280;52601;53.070;10.600;2023-04-25T04:50:54;100369.72;;;7.30;91.60
33189;BME280;52601;53.070;10.600;2023-04-25T04:53:39;100363.75;;;7.28;91.02
33189;BME280;52601;53.070;10.600;2023-04-25T04:56:25;100364.50;;;7.30;88.76
33189;BME280;52601;53.070;10.600;2023-04-25T04:59:10;100377.19;;;7.39;89.26
33189;BME280;52601;53.070;10.600;2023-04-25T05:01:55;100372.06;;;7.37;89.75
33189;BME280;52601;53.070;10.600;2023-04-25T05:04:41;100379.41;;;7.48;89.11
33189;BME280;52601;53.070;10.600;2023-04-25T05:07:26;100388.81;;;7.52;89.53
33189;BME280;52601;53.070;10.600;2023-04-25T05:10:12;100385.91;;;7.59;89.32
33189;BME280;52601;53.070;10.600;2023-04-25T05:12:57;100386.50;;;7.66;87.55
33189;BME280;52601;53.070;10.600;2023-04-25T05:15:43;100395.28;;;7.85;87.63
33189;BME280;52601;53.070;10.600;2023-04-25T05:18:28;100395.19;;;8.07;88.61
33189;BME280;52601;53.070;10.600;2023-04-25T05:21:14;100396.53;;;8.37;87.58
33189;BME280;52601;53.070;10.600;2023-04-25T05:24:00;100397.97;;;8.62;85.90
33189;BME280;52601;53.070;10.600;2023-04-25T05:26:45;100406.38;;;8.88;84.08
33189;BME280;52601;53.070;10.600;2023-04-25T05:29:30;100410.06;;;9.02;81.68
33189;BME280;52601;53.070;10.600;2023-04-25T05:32:16;100401.44;;;9.36;80.90
33189;BME280;52601;53.070;10.600;2023-04-25T05:35:02;100404.19;;;9.86;77.54
33189;BME280;52601;53.070;10.600;2023-04-25T05:37:48;100396.09;;;9.90;74.65
33189;BME280;52601;53.070;10.600;2023-04-25T05:40:34;100401.41;;;9.89;74.99
33189;BME280;52601;53.070;10.600;2023-04-25T05:43:19;100390.50;;;10.15;74.60
33189;BME280;52601;53.070;10.600;2023-04-25T05:46:05;100404.56;;;10.62;70.95
33189;BME280;52601;53.070;10.600;2023-04-25T05:48:51;100400.81;;;11.14;67.22
33189;BME280;52601;53.070;10.600;2023-04-25T05:51:36;100408.16;;;11.70;66.83
33189;BME280;52601;53.070;10.600;2023-04-25T05:54:22;100402.47;;;12.22;65.45
33189;BME280;52601;53.070;10.600;2023-04-25T05:57:07;100403.41;;;12.49;64.74
33189;BME280;52601;53.070;10.600;2023-04-25T05:59:53;100409.91;;;12.71;65.12
33189;BME280;52601;53.070;10.600;2023-04-25T06:02:39;100409.53;;;13.06;63.98
33189;BME280;52601;53.070;10.600;2023-04-25T06:05:25;100414.03;;;12.89;62.52
33189;BME280;52601;53.070;10.600;2023-04-25T06:08:11;100408.53;;;13.21;62.62
33189;BME280;52601;53.070;10.600;2023-04-25T06:10:56;100413.22;;;13.56;61.19
33189;BME280;52601;53.070;10.600;2023-04-25T06:13:41;100425.09;;;13.76;60.96
33189;BME280;52601;53.070;10.600;2023-04-25T06:16:27;100417.06;;;14.17;60.52
33189;BME280;52601;53.070;10.600;2023-04-25T06:19:12;100415.66;;;14.63;60.20
33189;BME280;52601;53.070;10.600;2023-04-25T06:21:58;100419.69;;;14.04;59.64
33189;BME280;52601;53.070;10.600;2023-04-25T06:24:43;100417.09;;;13.51;59.21
33189;BME280;52601;53.070;10.600;2023-04-25T06:27:29;100430.41;;;12.66;60.02
33189;BME280;52601;53.070;10.600;2023-04-25T06:30:15;100410.97;;;12.11;61.66
33189;BME280;52601;53.070;10.600;2023-04-25T06:33:01;100434.81;;;11.78;62.49
33189;BME280;52601;53.070;10.600;2023-04-25T06:35:47;100427.38;;;11.71;63.82
33189;BME280;52601;53.070;10.600;2023-04-25T06:38:32;100441.28;;;11.73;63.44
33189;BME280;52601;53.070;10.600;2023-04-25T06:41:20;100429.06;;;11.56;62.63
33189;BME280;52601;53.070;10.600;2023-04-25T06:44:05;100448.75;;;11.49;63.00
33189;BME280;52601;53.070;10.600;2023-04-25T06:46:51;100431.78;;;11.23;62.68
33189;BME280;52601;53.070;10.600;2023-04-25T06:49:37;100449.34;;;11.23;64.02
33189;BME280;52601;53.070;10.600;2023-04-25T06:52:22;100445.63;;;11.27;64.40
33189;BME280;52601;53.070;10.600;2023-04-25T06:55:09;100446.94;;;11.34;64.29
33189;BME280;52601;53.070;10.600;2023-04-25T06:57:54;100436.34;;;11.36;63.83
33189;BME280;52601;53.070;10.600;2023-04-25T07:00:40;100447.81;;;11.19;63.26
33189;BME280;52601;53.070;10.600;2023-04-25T07:03:25;100462.19;;;11.12;63.54
33189;BME280;52601;53.070;10.600;2023-04-25T07:06:11;100453.31;;;11.14;63.93
33189;BME280;52601;53.070;10.600;2023-04-25T07:08:56;100462.28;;;11.10;63.67
33189;BME280;52601;53.070;10.600;2023-04-25T07:11:42;100467.09;;;11.18;64.34
33189;BME280;52601;53.070;10.600;2023-04-25T07:14:27;100470.47;;;11.36;65.59
33189;BME280;52601;53.070;10.600;2023-04-25T07:17:13;100459.66;;;11.26;63.49
33189;BME280;52601;53.070;10.600;2023-04-25T07:20:01;100464.91;;;11.73;63.80
33189;BME280;52601;53.070;10.600;2023-04-25T07:22:47;100465.84;;;12.01;62.66
33189;BME280;52601;53.070;10.600;2023-04-25T07:25:32;100482.28;;;12.21;61.01
33189;BME280;52601;53.070;10.600;2023-04-25T07:28:18;100485.69;;;12.37;61.10
33189;BME280;52601;53.070;10.600;2023-04-25T07:31:04;100475.72;;;12.42;60.36
33189;BME280;52601;53.070;10.600;2023-04-25T07:33:50;100473.66;;;12.47;60.88
33189;BME280;52601;53.070;10.600;2023-04-25T07:36:35;100479.63;;;12.92;60.87
33189;BME280;52601;53.070;10.600;2023-04-25T07:39:21;100474.44;;;13.33;58.93
33189;BME280;52601;53.070;10.600;2023-04-25T07:42:08;100476.34;;;13.03;57.75
33189;BME280;52601;53.070;10.600;2023-04-25T07:44:54;100477.44;;;12.57;58.98
33189;BME280;52601;53.070;10.600;2023-04-25T07:47:39;100481.72;;;12.30;61.70
33189;BME280;52601;53.070;10.600;2023-04-25T07:50:25;100489.16;;;12.07;60.62
33189;BME280;52601;53.070;10.600;2023-04-25T07:53:11;100490.91;;;12.23;61.81
33189;BME280;52601;53.070;10.600;2023-04-25T07:55:56;100493.50;;;12.52;61.99
33189;BME280;52601;53.070;10.600;2023-04-25T07:58:42;100490.59;;;12.71;60.92
33189;BME280;52601;53.070;10.600;2023-04-25T08:01:27;100483.00;;;12.66;60.13
33189;BME280;52601;53.070;10.600;2023-04-25T08:04:13;100486.72;;;13.06;61.19
33189;BME280;52601;53.070;10.600;2023-04-25T08:06:59;100502.88;;;13.14;58.98
33189;BME280;52601;53.070;10.600;2023-04-25T08:09:45;100489.53;;;13.17;56.83
33189;BME280;52601;53.070;10.600;2023-04-25T08:12:31;100488.66;;;13.31;57.98
33189;BME280;52601;53.070;10.600;2023-04-25T08:15:16;100515.66;;;14.02;57.36
33189;BME280;52601;53.070;10.600;2023-04-25T08:18:02;100508.00;;;13.84;56.73
33189;BME280;52601;53.070;10.600;2023-04-25T08:20:48;100518.44;;;12.89;56.85
33189;BME280;52601;53.070;10.600;2023-04-25T08:23:33;100522.47;;;12.23;58.88
33189;BME280;52601;53.070;10.600;2023-04-25T08:26:18;100523.31;;;12.07;60.89
33189;BME280;52601;53.070;10.600;2023-04-25T08:29:04;100528.28;;;12.28;60.55
33189;BME280;52601;53.070;10.600;2023-04-25T08:31:50;100538.09;;;12.40;59.95
33189;BME280;52601;53.070;10.600;2023-04-25T08:34:38;100535.19;;;12.15;61.13
33189;BME280;52601;53.070;10.600;2023-04-25T08:37:27;100539.19;;;11.59;62.87
33189;BME280;52601;53.070;10.600;2023-04-25T08:40:14;100540.56;;;11.51;64.22
33189;BME280;52601;53.070;10.600;2023-04-25T08:43:01;100535.09;;;11.71;64.04
33189;BME280;52601;53.070;10.600;2023-04-25T08:45:48;100531.44;;;12.48;61.52
33189;BME280;52601;53.070;10.600;2023-04-25T08:48:34;100530.63;;;14.01;59.73
33189;BME280;52601;53.070;10.600;2023-04-25T08:51:23;100523.50;;;15.30;56.33
33189;BME280;52601;53.070;10.600;2023-04-25T08:54:12;100538.91;;;16.32;53.46
33189;BME280;52601;53.070;10.600;2023-04-25T08:57:02;100524.75;;;16.33;52.80
33189;BME280;52601;53.070;10.600;2023-04-25T08:59:48;100547.66;;;15.75;52.88
33189;BME280;52601;53.070;10.600;2023-04-25T09:02:34;100561.22;;;15.07;54.16
33189;BME280;52601;53.070;10.600;2023-04-25T09:05:20;100562.88;;;14.58;55.21
33189;BME280;52601;53.070;10.600;2023-04-25T09:08:06;100542.50;;;14.21;54.21
33189;BME280;52601;53.070;10.600;2023-04-25T09:10:51;100564.41;;;14.09;54.90
33189;BME280;52601;53.070;10.600;2023-04-25T09:13:37;100575.31;;;13.76;53.79
33189;BME280;52601;53.070;10.600;2023-04-25T09:16:22;100572.69;;;13.76;55.25
33189;BME280;52601;53.070;10.600;2023-04-25T09:19:21;100584.78;;;13.93;53.77
33189;BME280;52601;53.070;10.600;2023-04-25T09:22:21;100591.91;;;14.05;54.39
33189;BME280;52601;53.070;10.600;2023-04-25T09:25:10;100580.59;;;16.65;51.84
33189;BME280;52601;53.070;10.600;2023-04-25T09:27:56;100571.63;;;18.96;46.79
33189;BME280;52601;53.070;10.600;2023-04-25T09:30:42;100575.88;;;19.08;45.08
33189;BME280;52601;53.070;10.600;2023-04-25T09:33:32;100577.91;;;19.75;45.47
33189;BME280;52601;53.070;10.600;2023-04-25T09:36:18;100587.06;;;19.32;44.43
33189;BME280;52601;53.070;10.600;2023-04-25T09:39:12;100600.91;;;18.21;45.26
33189;BME280;52601;53.070;10.600;2023-04-25T09:42:00;100621.47;;;17.42;46.90
33189;BME280;52601;53.070;10.600;2023-04-25T09:44:47;100601.19;;;16.25;47.95
33189;BME280;52601;53.070;10.600;2023-04-25T09:47:37;100597.59;;;15.29;49.88
33189;BME280;52601;53.070;10.600;2023-04-25T09:50:23;100613.53;;;14.50;51.91
33189;BME280;52601;53.070;10.600;2023-04-25T09:53:10;100621.81;;;14.18;53.20
33189;BME280;52601;53.070;10.600;2023-04-25T09:55:56;100625.44;;;13.34;55.64
33189;BME280;52601;53.070;10.600;2023-04-25T09:58:43;100646.59;;;12.28;73.44
33189;BME280;52601;53.070;10.600;2023-04-25T10:01:28;100664.84;;;11.00;86.50
33189;BME280;52601;53.070;10.600;2023-04-25T10:04:18;100665.09;;;10.61;95.63
33189;BME280;52601;53.070;10.600;2023-04-25T10:07:06;100657.94;;;10.99;96.77
33189;BME280;52601;53.070;10.600;2023-04-25T10:09:58;100656.53;;;11.59;93.61
33189;BME280;52601;53.070;10.600;2023-04-25T10:12:45;100652.44;;;12.01;85.95
33189;BME280;52601;53.070;10.600;2023-04-25T10:15:32;100652.91;;;12.70;81.49
33189;BME280;52601;53.070;10.600;2023-04-25T10:18:25;100648.66;;;13.41;75.55
33189;BME280;52601;53.070;10.600;2023-04-25T10:21:12;100659.03;;;14.27;71.37
33189;BME280;52601;53.070;10.600;2023-04-25T10:24:00;100651.63;;;15.50;66.70
33189;BME280;52601;53.070;10.600;2023-04-25T10:26:47;100639.22;;;15.88;59.82
33189;BME280;52601;53.070;10.600;2023-04-25T10:29:35;100646.25;;;16.36;58.85
33189;BME280;52601;53.070;10.600;2023-04-25T10:32:20;100636.41;;;16.86;52.11
33189;BME280;52601;53.070;10.600;2023-04-25T10:35:16;100638.25;;;18.51;52.12
33189;BME280;52601;53.070;10.600;2023-04-25T10:38:10;100635.84;;;21.09;46.85
33189;BME280;52601;53.070;10.600;2023-04-25T10:41:06;100637.38;;;22.31;42.38
33189;BME280;52601;53.070;10.600;2023-04-25T10:43:59;100628.09;;;22.70;42.22
33189;BME280;52601;53.070;10.600;2023-04-25T10:46:46;100632.84;;;20.26;44.10
33189;BME280;52601;53.070;10.600;2023-04-25T10:49:34;100649.78;;;18.93;46.91
33189;BME280;52601;53.070;10.600;2023-04-25T10:52:27;100660.81;;;15.82;52.69
33189;BME280;52601;53.070;10.600;2023-04-25T10:55:13;100671.19;;;14.30;55.91
33189;BME280;52601;53.070;10.600;2023-04-25T10:58:00;100673.06;;;13.15;58.99
33189;BME280;52601;53.070;10.600;2023-04-25T11:00:46;100688.56;;;12.45;61.45
33189;BME280;52601;53.070;10.600;2023-04-25T11:03:43;100687.78;;;11.80;65.31
33189;BME280;52601;53.070;10.600;2023-04-25T11:09:45;100701.50;;;10.84;72.05
33189;BME280;52601;53.070;10.600;2023-04-25T11:12:31;100686.63;;;10.68;79.65
33189;BME280;52601;53.070;10.600;2023-04-25T11:15:17;100690.78;;;10.36;87.56
33189;BME280;52601;53.070;10.600;2023-04-25T11:18:02;100697.25;;;10.10;90.61
33189;BME280;52601;53.070;10.600;2023-04-25T11:20:49;100691.25;;;10.07;91.79
33189;BME280;52601;53.070;10.600;2023-04-25T11:23:34;100689.50;;;10.07;84.90
33189;BME280;52601;53.070;10.600;2023-04-25T11:26:20;100690.13;;;10.50;80.23
33189;BME280;52601;53.070;10.600;2023-04-25T11:29:07;100689.41;;;11.16;78.24
33189;BME280;52601;53.070;10.600;2023-04-25T11:31:53;100677.94;;;11.68;72.96
33189;BME280;52601;53.070;10.600;2023-04-25T11:34:44;100681.34;;;12.01;68.93
33189;BME280;52601;53.070;10.600;2023-04-25T11:37:30;100678.13;;;12.88;65.72
33189;BME280;52601;53.070;10.600;2023-04-25T11:40:16;100676.69;;;14.53;63.46
33189;BME280;52601;53.070;10.600;2023-04-25T11:43:01;100649.59;;;19.06;56.14
33189;BME280;52601;53.070;10.600;2023-04-25T11:45:50;100651.22;;;21.43;45.79
33189;BME280;52601;53.070;10.600;2023-04-25T11:48:40;100654.47;;;22.56;42.71
33189;BME280;52601;53.070;10.600;2023-04-25T11:51:27;100659.47;;;22.51;39.60
33189;BME280;52601;53.070;10.600;2023-04-25T11:54:12;100648.47;;;22.71;41.24
33189;BME280;52601;53.070;10.600;2023-04-25T11:56:58;100656.66;;;23.74;38.69
33189;BME280;52601;53.070;10.600;2023-04-25T11:59:44;100652.84;;;24.26;37.96
33189;BME280;52601;53.070;10.600;2023-04-25T12:02:30;100644.28;;;26.00;35.96
33189;BME280;52601;53.070;10.600;2023-04-25T12:05:16;100630.00;;;25.52;36.44
33189;BME280;52601;53.070;10.600;2023-04-25T12:08:17;100680.97;;;22.49;40.81
33189;BME280;52601;53.070;10.600;2023-04-25T12:11:02;100722.16;;;17.76;53.01
33189;BME280;52601;53.070;10.600;2023-04-25T12:13:51;100727.44;;;14.71;68.37
33189;BME280;52601;53.070;10.600;2023-04-25T12:16:42;100733.47;;;13.18;73.83
33189;BME280;52601;53.070;10.600;2023-04-25T12:19:32;100736.31;;;12.53;83.71
33189;BME280;52601;53.070;10.600;2023-04-25T12:22:21;100734.44;;;11.75;83.88
33189;BME280;52601;53.070;10.600;2023-04-25T12:25:07;100730.25;;;11.39;81.37
33189;BME280;52601;53.070;10.600;2023-04-25T12:27:53;100725.75;;;11.23;78.52
33189;BME280;52601;53.070;10.600;2023-04-25T12:31:02;100736.41;;;11.20;76.26
33189;BME280;52601;53.070;10.600;2023-04-25T12:33:48;100726.56;;;11.58;76.64
33189;BME280;52601;53.070;10.600;2023-04-25T12:36:34;100717.69;;;11.78;71.39
33189;BME280;52601;53.070;10.600;2023-04-25T12:42:06;100715.19;;;13.87;68.43
33189;BME280;52601;53.070;10.600;2023-04-25T12:44:57;100720.88;;;15.42;61.22
33189;BME280;52601;53.070;10.600;2023-04-25T12:47:43;100706.94;;;18.34;55.59
33189;BME280;52601;53.070;10.600;2023-04-25T12:50:29;100695.41;;;22.39;45.81
33189;BME280;52601;53.070;10.600;2023-04-25T12:53:21;100696.19;;;24.47;39.94
33189;BME280;52601;53.070;10.600;2023-04-25T12:56:08;100682.72;;;26.47;36.27
33189;BME280;52601;53.070;10.600;2023-04-25T12:58:53;100677.66;;;26.21;35.45
33189;BME280;52601;53.070;10.600;2023-04-25T13:01:38;100682.19;;;26.52;36.24
33189;BME280;52601;53.070;10.600;2023-04-25T13:04:24;100692.59;;;26.85;34.21
33189;BME280;52601;53.070;10.600;2023-04-25T13:07:10;100682.28;;;26.66;34.41
33189;BME280;52601;53.070;10.600;2023-04-25T13:09:56;100682.03;;;24.29;36.68
33189;BME280;52601;53.070;10.600;2023-04-25T13:12:41;100688.78;;;21.13;40.11
33189;BME280;52601;53.070;10.600;2023-04-25T13:15:27;100710.44;;;18.34;45.74
33189;BME280;52601;53.070;10.600;2023-04-25T13:18:12;100712.69;;;16.45;46.78
33189;BME280;52601;53.070;10.600;2023-04-25T13:20:58;100712.78;;;15.19;49.92
33189;BME280;52601;53.070;10.600;2023-04-25T13:23:44;100720.22;;;14.46;51.10
33189;BME280;52601;53.070;10.600;2023-04-25T13:26:31;100709.41;;;14.23;51.23
33189;BME280;52601;53.070;10.600;2023-04-25T13:29:17;100723.53;;;14.36;50.82
33189;BME280;52601;53.070;10.600;2023-04-25T13:32:02;100719.53;;;18.21;46.89
33189;BME280;52601;53.070;10.600;2023-04-25T13:34:48;100697.47;;;22.17;40.09
33189;BME280;52601;53.070;10.600;2023-04-25T13:37:33;100698.38;;;23.84;35.65
33189;BME280;52601;53.070;10.600;2023-04-25T13:40:19;100696.72;;;20.85;38.66
33189;BME280;52601;53.070;10.600;2023-04-25T13:43:06;100716.69;;;18.66;41.63
33189;BME280;52601;53.070;10.600;2023-04-25T13:45:52;100722.91;;;17.67;42.66
33189;BME280;52601;53.070;10.600;2023-04-25T13:48:37;100723.16;;;17.41;45.05
33189;BME280;52601;53.070;10.600;2023-04-25T13:51:23;100726.25;;;16.16;44.21
33189;BME280;52601;53.070;10.600;2023-04-25T13:54:08;100729.66;;;15.56;46.75
33189;BME280;52601;53.070;10.600;2023-04-25T13:56:54;100747.53;;;15.13;48.20
33189;BME280;52601;53.070;10.600;2023-04-25T13:59:43;100732.44;;;14.88;49.17
33189;BME280;52601;53.070;10.600;2023-04-25T14:02:29;100732.72;;;15.10;50.61
33189;BME280;52601;53.070;10.600;2023-04-25T14:05:14;100735.56;;;15.97;47.68
33189;BME280;52601;53.070;10.600;2023-04-25T14:08:00;100719.41;;;18.33;42.72
33189;BME280;52601;53.070;10.600;2023-04-25T14:10:46;100735.59;;;19.16;43.47
33189;BME280;52601;53.070;10.600;2023-04-25T14:13:32;100725.03;;;20.17;40.93
33189;BME280;52601;53.070;10.600;2023-04-25T14:16:17;100725.94;;;20.96;40.48
33189;BME280;52601;53.070;10.600;2023-04-25T14:19:03;100729.91;;;22.59;37.38
33189;BME280;52601;53.070;10.600;2023-04-25T14:21:48;100730.34;;;23.78;34.60
33189;BME280;52601;53.070;10.600;2023-04-25T14:24:34;100732.06;;;23.87;33.41
33189;BME280;52601;53.070;10.600;2023-04-25T14:27:19;100735.94;;;23.92;33.37